KLHW Airport (Wright Aaf (Fort Stewart)/Midcoast Rgnl) Information

FAA: LHW - ICAO: KLHW

KLHW Airport Location

State Georgia
County Liberty
City Fort Stewart(Hinesville)
Latitude 31-53-16.1500N
Longitude 081-33-45.5580W
Elevation 46ft

KLHW Airport METARs

METAR KLHW 240856Z AUTO 00000KT 10SM CLR 15/13 A2998 RMK AO2 SLP155 T01460130 55001 $
Altimeter 29.98"
Temperature 14.6°C (58.3°F)
Wind 0° at 0KT
Clouds Skies are clear.
Visibility 10.0mi
Time observed: 2021-09-24T08:56:00Z

KLHW Airport Details

Status Operational
Activation N/A
Ownership Military - Army
Usage Public
Chart JACKSONVILLE
ATC on-site Yes
Beacon schedule sunset-sunrise
Beacon color split clear green

KLHW Airport Contacts

Owner US ARMY AERONAUTICAL SVCS AGENCY
Owner address N/A, FT BELVOIR, VA 22060
Owner phone N/A
Manager RICHARD COATES
Manager address 10 MT. CALVARY RD., FORT GAINES, GA 39851
Manager phone 229-768-2414

KLHW Airport (Wright Aaf (Fort Stewart)/Midcoast Rgnl) Radio Frequencies

KLHW (Airport) Radio Frequencies

UNICOM N/A
Common traffic advisory frequency (CTAF) 126.25